createdAt,value
2023-12-02T00:03:59.738Z,24.75
2023-12-02T00:09:02.871Z,25.00
2023-12-02T00:14:07.225Z,23.25
2023-12-02T00:19:10.107Z,26.50
2023-12-02T00:24:12.998Z,25.00
2023-12-02T00:29:17.368Z,21.25
2023-12-02T00:34:20.285Z,25.00
2023-12-02T00:39:23.152Z,23.50
2023-12-02T00:44:27.394Z,26.00
2023-12-02T00:49:30.222Z,22.50
2023-12-02T00:54:35.300Z,20.50
2023-12-02T00:59:39.977Z,19.75
2023-12-02T01:04:42.916Z,20.75
2023-12-02T01:09:45.792Z,21.50
2023-12-02T01:14:49.963Z,22.25
2023-12-02T01:19:52.804Z,20.75
2023-12-02T01:24:55.689Z,20.50
2023-12-02T01:29:59.975Z,21.00
2023-12-02T01:35:03.045Z,22.50
2023-12-02T01:40:06.839Z,18.50
2023-12-02T01:45:12.038Z,20.25
2023-12-02T01:50:18.033Z,20.00
2023-12-02T01:55:21.138Z,17.25
2023-12-02T02:00:25.601Z,21.00
2023-12-02T02:05:29.018Z,20.25
2023-12-02T02:10:31.850Z,19.50
2023-12-02T02:15:36.120Z,18.00
2023-12-02T02:20:38.972Z,18.00
2023-12-02T02:25:43.122Z,17.00
2023-12-02T02:30:45.996Z,18.75
2023-12-02T02:35:49.160Z,17.25
2023-12-02T02:40:53.482Z,19.00
2023-12-02T02:45:56.296Z,18.25
2023-12-02T02:50:59.294Z,15.00
2023-12-02T02:56:03.404Z,17.25
2023-12-02T03:01:06.516Z,17.75
2023-12-02T03:06:10.285Z,14.75
2023-12-02T03:11:14.393Z,16.00
2023-12-02T03:16:17.179Z,19.00
2023-12-02T03:21:20.497Z,16.00
2023-12-02T03:26:27.493Z,19.75
2023-12-02T03:31:30.334Z,14.50
2023-12-02T03:36:33.169Z,18.00
2023-12-02T03:41:37.317Z,14.75
2023-12-02T03:46:41.879Z,14.25
2023-12-02T03:51:44.716Z,17.25
2023-12-02T03:56:49.097Z,17.75
2023-12-02T04:01:52.848Z,15.00
2023-12-02T04:06:55.840Z,14.25
2023-12-02T04:12:00.070Z,15.00
2023-12-02T04:17:03.165Z,13.00
2023-12-02T04:22:05.937Z,16.25
2023-12-02T04:27:10.283Z,12.25
2023-12-02T04:32:13.283Z,12.00
2023-12-02T04:37:16.336Z,14.00
2023-12-02T04:42:20.516Z,12.50
2023-12-02T04:47:23.312Z,14.50
2023-12-02T04:52:26.117Z,12.75
2023-12-02T04:57:30.374Z,12.50
2023-12-02T05:02:33.211Z,14.00
2023-12-02T05:07:36.004Z,12.50
2023-12-02T05:12:40.199Z,14.50
2023-12-02T05:17:43.316Z,12.00
2023-12-02T05:22:49.173Z,12.25
2023-12-02T05:27:54.223Z,12.25
2023-12-02T05:32:57.348Z,10.75
2023-12-02T05:38:00.183Z,12.25
2023-12-02T05:43:04.482Z,11.25
2023-12-02T05:48:08.071Z,10.75
2023-12-02T05:53:10.979Z,12.00
2023-12-02T05:58:15.112Z,9.00
2023-12-02T06:03:18.009Z,13.50
2023-12-02T06:08:20.875Z,11.50
2023-12-02T06:13:25.041Z,11.50
2023-12-02T06:18:28.022Z,13.50
2023-12-02T06:23:30.954Z,13.50
2023-12-02T06:28:35.273Z,14.00
2023-12-02T06:33:38.209Z,9.50
2023-12-02T06:38:41.089Z,13.00
2023-12-02T06:43:45.304Z,18.00
2023-12-02T06:48:48.551Z,12.75
2023-12-02T06:53:51.406Z,13.00
2023-12-02T06:58:55.747Z,15.50
2023-12-02T07:04:00.167Z,11.00
2023-12-02T07:09:03.159Z,12.00
2023-12-02T07:14:07.490Z,10.25
2023-12-02T07:19:10.472Z,12.25
2023-12-02T07:24:13.379Z,12.00
2023-12-02T07:29:17.700Z,12.50
2023-12-02T07:34:20.687Z,11.00
2023-12-02T07:39:23.499Z,13.75
2023-12-02T07:44:27.673Z,13.50
2023-12-02T07:49:30.546Z,10.50
2023-12-02T07:54:33.526Z,13.00
2023-12-02T07:59:37.699Z,12.75
2023-12-02T08:04:40.636Z,25.00
2023-12-02T08:09:43.758Z,25.50
2023-12-02T08:14:48.050Z,20.50
2023-12-02T08:19:51.355Z,19.75
2023-12-02T08:24:54.918Z,15.75
2023-12-02T08:29:59.351Z,15.00
2023-12-02T08:35:02.921Z,13.50
2023-12-02T08:40:07.153Z,11.25
2023-12-02T08:45:12.202Z,13.00
2023-12-02T08:50:15.093Z,10.50
2023-12-02T08:55:18.894Z,9.75
2023-12-02T09:00:23.367Z,10.00
2023-12-02T09:05:26.305Z,9.50
2023-12-02T09:10:29.497Z,9.25
2023-12-02T09:15:44.254Z,8.50
2023-12-02T09:20:49.011Z,8.25
2023-12-02T09:25:52.900Z,8.00
2023-12-02T09:31:09.761Z,8.00
2023-12-02T09:36:33.620Z,8.25
2023-12-02T09:41:45.531Z,8.00
2023-12-02T09:46:58.937Z,8.50
2023-12-02T09:52:17.719Z,6.00
2023-12-02T09:57:36.941Z,6.25
2023-12-02T10:03:04.764Z,5.75
2023-12-02T10:08:15.051Z,6.25
2023-12-02T10:13:24.879Z,7.75
2023-12-02T10:18:37.192Z,7.75
2023-12-02T10:23:53.388Z,7.50
2023-12-02T10:29:10.256Z,6.75
2023-12-02T10:34:24.633Z,7.75
2023-12-02T10:39:41.870Z,8.75
2023-12-02T10:44:46.122Z,6.50
2023-12-02T10:49:52.186Z,7.00
2023-12-02T10:54:59.710Z,6.75
2023-12-02T11:00:07.892Z,7.00
2023-12-02T11:05:22.483Z,8.00
2023-12-02T11:10:35.143Z,5.75
2023-12-02T11:16:01.518Z,6.00
2023-12-02T11:21:08.730Z,6.25
2023-12-02T11:26:25.239Z,5.50
2023-12-02T11:31:44.355Z,7.00
2023-12-02T11:36:56.330Z,6.50
2023-12-02T11:42:10.218Z,6.00
2023-12-02T11:47:28.900Z,6.00
2023-12-02T11:52:48.182Z,6.75
2023-12-02T11:58:05.477Z,5.00
2023-12-02T12:03:27.600Z,6.75
2023-12-02T12:08:40.824Z,8.00
2023-12-02T12:13:45.198Z,6.00
2023-12-02T12:18:48.113Z,6.25
2023-12-02T12:23:52.386Z,4.50
2023-12-02T12:28:55.416Z,5.75
2023-12-02T12:33:59.218Z,4.75
2023-12-02T12:39:04.325Z,4.50
2023-12-02T12:44:08.367Z,6.25
2023-12-02T12:49:15.253Z,3.75
2023-12-02T12:54:25.603Z,5.00
2023-12-02T12:59:32.538Z,4.50
2023-12-02T13:04:38.014Z,4.00
2023-12-02T13:09:44.606Z,5.50
2023-12-02T13:14:50.661Z,4.75
2023-12-02T13:19:58.375Z,4.00
2023-12-02T13:25:10.125Z,4.50
2023-12-02T13:30:13.383Z,4.33
2023-12-02T13:35:17.460Z,4.00
2023-12-02T13:40:29.202Z,5.25
2023-12-02T13:45:34.912Z,5.00
2023-12-02T13:50:48.897Z,5.00
2023-12-02T13:56:07.243Z,3.75
2023-12-02T14:01:21.161Z,4.75
2023-12-02T14:06:29.394Z,5.00
2023-12-02T14:11:47.104Z,5.00
2023-12-02T14:17:04.876Z,3.75
2023-12-02T14:22:38.142Z,4.00
2023-12-02T14:28:04.055Z,5.00
2023-12-02T14:33:32.454Z,5.00
2023-12-02T14:39:07.805Z,3.75
2023-12-02T14:44:25.972Z,5.50
2023-12-02T14:49:30.583Z,5.00
2023-12-02T14:54:35.568Z,4.00
2023-12-02T14:59:39.936Z,5.25
2023-12-02T15:04:43.924Z,5.00
2023-12-02T15:09:47.286Z,4.50
2023-12-02T15:14:51.749Z,4.00
2023-12-02T15:19:54.985Z,5.00
2023-12-02T15:24:57.788Z,4.50
2023-12-02T15:30:03.213Z,4.00
2023-12-02T15:35:07.721Z,5.00
2023-12-02T15:40:11.672Z,5.00
2023-12-02T15:45:16.144Z,4.00
2023-12-02T15:50:19.085Z,2.75
2023-12-02T15:55:22.301Z,4.00
2023-12-02T16:00:27.196Z,4.00
2023-12-02T16:05:32.146Z,4.75
2023-12-02T16:10:35.423Z,3.75
2023-12-02T16:15:41.478Z,3.00
2023-12-02T16:20:45.664Z,3.00
2023-12-02T16:25:48.942Z,4.00
2023-12-02T16:30:56.754Z,4.25
2023-12-02T16:36:01.441Z,2.50
2023-12-02T16:41:05.041Z,3.00
2023-12-02T16:46:09.743Z,4.00
2023-12-02T16:51:13.295Z,4.00
2023-12-02T16:56:21.673Z,4.00
2023-12-02T17:01:29.212Z,4.00
2023-12-02T17:06:32.323Z,5.50
2023-12-02T17:11:40.547Z,3.50
2023-12-02T17:17:08.458Z,4.25
2023-12-02T17:22:16.978Z,5.50
2023-12-02T17:27:40.891Z,6.25
2023-12-02T17:32:45.481Z,5.50
2023-12-02T17:37:48.644Z,5.00
2023-12-02T17:42:51.522Z,3.00
2023-12-02T17:47:56.275Z,4.25
2023-12-02T17:52:59.726Z,4.75
2023-12-02T17:58:04.178Z,4.00
2023-12-02T18:03:08.716Z,4.75
2023-12-02T18:08:11.970Z,6.00
2023-12-02T18:13:15.224Z,4.75
2023-12-02T18:18:20.068Z,4.00
2023-12-02T18:23:24.532Z,4.50
2023-12-02T18:28:27.658Z,5.00
2023-12-02T18:33:32.587Z,4.50
2023-12-02T18:38:35.694Z,4.00
2023-12-02T18:43:39.503Z,5.00
2023-12-02T18:48:43.687Z,4.50
2023-12-02T18:53:46.613Z,4.00
2023-12-02T18:58:49.784Z,2.75
2023-12-02T19:03:55.794Z,5.00
2023-12-02T19:08:58.857Z,3.25
2023-12-02T19:14:01.933Z,4.00
2023-12-02T19:19:12.578Z,4.25
2023-12-02T19:24:16.175Z,4.50
2023-12-02T19:29:19.123Z,4.00
2023-12-02T19:34:23.429Z,4.00
2023-12-02T19:39:26.323Z,3.50
2023-12-02T19:44:29.119Z,4.00
2023-12-02T19:49:35.502Z,3.75
2023-12-02T19:54:38.482Z,3.25
2023-12-02T19:59:41.415Z,4.50
2023-12-02T20:04:45.844Z,4.75
2023-12-02T20:09:48.819Z,3.00
2023-12-02T20:14:51.983Z,4.00
2023-12-02T20:19:56.264Z,4.25
2023-12-02T20:24:59.099Z,5.50
2023-12-02T20:30:02.015Z,6.00
2023-12-02T20:35:07.268Z,6.00
2023-12-02T20:40:10.983Z,4.50
2023-12-02T20:45:13.885Z,6.75
2023-12-02T20:50:18.137Z,5.75
2023-12-02T20:55:21.528Z,4.00
2023-12-02T21:00:24.374Z,5.25
2023-12-02T21:05:28.612Z,5.00
2023-12-02T21:10:31.515Z,5.25
2023-12-02T21:15:42.756Z,4.50
2023-12-02T21:20:48.394Z,4.00
2023-12-02T21:25:51.294Z,4.75
2023-12-02T21:30:54.267Z,4.00
2023-12-02T21:35:58.682Z,5.25
2023-12-02T21:41:05.661Z,6.00
2023-12-02T21:46:14.048Z,2.75
2023-12-02T21:51:24.791Z,4.00
2023-12-02T21:56:28.230Z,3.25
2023-12-02T22:01:36.733Z,4.25
2023-12-02T22:06:49.240Z,3.75
2023-12-02T22:11:53.074Z,4.00
2023-12-02T22:16:59.164Z,5.00
2023-12-02T22:22:07.763Z,4.00
2023-12-02T22:27:23.116Z,5.00
2023-12-02T22:32:26.646Z,4.50
2023-12-02T22:37:31.403Z,3.00
2023-12-02T22:42:34.229Z,4.00
2023-12-02T22:47:37.142Z,3.75
2023-12-02T22:52:41.340Z,3.75
2023-12-02T22:57:44.421Z,5.00
2023-12-02T23:02:47.524Z,4.00
2023-12-02T23:07:57.871Z,5.00
2023-12-02T23:13:01.529Z,4.00
2023-12-02T23:18:06.618Z,5.00
2023-12-02T23:23:11.147Z,3.50
2023-12-02T23:28:14.007Z,4.25
2023-12-02T23:33:17.695Z,3.75
2023-12-02T23:38:21.941Z,4.00
2023-12-02T23:43:32.389Z,4.00
2023-12-02T23:48:35.448Z,3.25
2023-12-02T23:53:39.733Z,5.00
2023-12-02T23:58:42.933Z,3.50
